Daily Weather Data

ICAR-Vivekananda Parvatiya Krishi Anusandhan Sansthan, Almora

Month:  July to August  2017

 Date

Max. Temp. (0 C)

Min. Temp. (0 C)

Rainfall (mm)

Max. RH(%) Min. RH(%) Wind Speed (mt/s) Wind Dir. Dew Point (0 C)
01/07/2017 28.9 19.9 3.2 75.6 63.2 0.3 301 21.2
02/07/2017 25.9 20.4 5.8 93.1 87.3 0.7 69 20.7
03/07/2017 27.8 18.8 0 78.6 68.8 1.7 45 20.7
04/07/2017 27.3 18.9 0 75.6 69.3 0.5 59 21.3
05/07/2017 24.1 20.9 0.8 87.7 82.8 0.8 351 21.2
06/07/2017 20.4 18.9 114.0 97.0 96.6 1.3 11 18.9
07/07/2017 20.8 18.6 32.6 97.2 94.7 0.9 28 19.6
08/07/2017 29.7 19.0 0.6 93.3 89.1 0.13 191 19.6
09/07/2017 28.5 20.7 0 85.9 80.2 0.18 199 20.4
10/07/2017 24.9 19.8 5.2 88.6 83.6 0.56 168 19.9
11/07/2017 23.1 19 9.2 94.9 92.2 0.43 171 19.3
12/07/2017 21.9 18.4 46.6 96.7 95.6 0.37 197 18.8
13/07/2017 28.9 18.8 0 89.4 84.1 0.2 176 18.8
14/07/2017 26.2 19.8 0 86.6 80.1 0.1 178 19.5
15/07/2017 25.7 19.8 2.8 90.6 85.5 0.12 167 20.2
16/07/2017 27.7 18.6 51.4 94.9 91.5 0.1 177 19.6
17/07/2017 22.7 18.6 1 96.7 93.4 0.1 182 19.2
18/07/2017 29.2 20 1 87.9 84.2 0.09 120 12.8
19/07/2017 30.9 20.3 0 85 77.5 0.3 198 20.6
20/07/2017 26.4 19.1 4 84.9 79.5 0.2 157 19.2
21/07/2017 28.5 19.8 0 84.7 76.8 0.33 139 19.8
22/07/2017 26.8 19.6 1.8 87.6 81.5 0.34 126 19.8
23/07/2017 29.6 19.7 2.2 87.5 81.6 0.38 169 19.6
24/07/2017 25.6 19.1 0 80.8 74.4 0.36 181 18.8
25/07/2017 26.1 19.1 1.2 87 80.9 0.24 116 19.2
26/07/2017 27.2 19 0 85.9 75.1 0.16 171 17.2
27/07/2017 25.7 19.7 0.4 89.2 85.1 0.22 196 19.8
28/07/2017 26.6 19.6 1.2 88.9 84.4 0.25 159 20
29/07/2017 28.1 19.8 3.8 85.7 78.4 0.23 177 20.5
30/07/2017 26.5 19.7 1.4 84.5 79.1 0.21 255 20.4
31/07/2017 26.3 19.3 3.6 87.8 82.1 0.2 271 20.2
01/08/2017 26.2 19.3 3.2 90.9 87.2 0.23 217 19.8
02/08/2017 27.7 19.2 3.2 87 80.6 0.26 174 20.5
03/08/2017 28.2 19.6 0.2 89.9 85.3 0.41 207 20.8
04/08/2017 24.9 20.3 6.8 91.6 88.2 0.29 177 20.6
05/08/2017 24.7 19 31.7 97.5 94.9 0.14 106 20.1
06/08/2017 28.3 20.3 5.0 91 85.8 0.15 197 21.0
07/08/2017 23.1 20.4 2.6 93.8 90.5 0.09 71.0 20.8
08/08/2017 26 20.4 0 92.3 88.8 0.09 178 20.6
09/08/2017 28.8 20.2 0 89.3 83.3 0.19 180 20.8
10/08/2017 25.5 20.1 2 90.1 91.8 87.5 162 20.8
11/08/2017 26.6 20.2 1 92.3 87.5 0.14 123 20.5
12/08/2017 28.5 20.8 0 86.9 82.5 0.52 157.8 20.6
13/08/2017 28.6 20.5 0 87.4 79 0.59 140 20.1
14/08/2017 28.1 19.7 0 85.2 78.9 0.38 181 20.4
15/08/2017 28.5 19.4 0 87.7 82.9 0.36 162 19.6
16/08/2017 28.9 19.2 0 86.6 81.9 0.32 167 19.8
17/08/2017 29.6 20 0 84.1 78.7 0.36 199 19.9
18/08/2017 27.7 19.9 0 88.3 82.7 0.23 136 20.5